sensor_id;sensor_type;location;lat;lon;timestamp;temperature;humidity
22738;DHT22;11536;50.860;4.286;2022-07-23T00:00:33;18.90;99.90
22738;DHT22;11536;50.860;4.286;2022-07-23T00:02:59;18.90;99.90
22738;DHT22;11536;50.860;4.286;2022-07-23T00:05:24;18.90;99.90
22738;DHT22;11536;50.860;4.286;2022-07-23T00:07:50;18.90;99.90
22738;DHT22;11536;50.860;4.286;2022-07-23T00:10:16;18.90;99.90
22738;DHT22;11536;50.860;4.286;2022-07-23T00:12:41;18.90;99.90
22738;DHT22;11536;50.860;4.286;2022-07-23T00:15:08;18.90;99.90
22738;DHT22;11536;50.860;4.286;2022-07-23T00:17:34;18.90;99.90
22738;DHT22;11536;50.860;4.286;2022-07-23T00:20:00;18.90;99.90
22738;DHT22;11536;50.860;4.286;2022-07-23T00:22:26;18.90;99.90
22738;DHT22;11536;50.860;4.286;2022-07-23T00:24:53;18.80;99.90
22738;DHT22;11536;50.860;4.286;2022-07-23T00:27:19;18.80;99.90
22738;DHT22;11536;50.860;4.286;2022-07-23T00:29:44;18.80;99.90
22738;DHT22;11536;50.860;4.286;2022-07-23T00:32:10;18.80;99.90
22738;DHT22;11536;50.860;4.286;2022-07-23T00:34:36;18.80;99.90
22738;DHT22;11536;50.860;4.286;2022-07-23T00:37:01;18.80;99.90
22738;DHT22;11536;50.860;4.286;2022-07-23T00:39:27;18.80;99.90
22738;DHT22;11536;50.860;4.286;2022-07-23T00:41:53;18.80;99.90
22738;DHT22;11536;50.860;4.286;2022-07-23T00:44:22;18.80;99.90
22738;DHT22;11536;50.860;4.286;2022-07-23T00:46:54;18.80;99.90
22738;DHT22;11536;50.860;4.286;2022-07-23T00:49:21;18.70;99.90
22738;DHT22;11536;50.860;4.286;2022-07-23T00:51:48;18.80;99.90
22738;DHT22;11536;50.860;4.286;2022-07-23T00:54:15;18.80;99.90
22738;DHT22;11536;50.860;4.286;2022-07-23T00:56:43;18.70;99.90
22738;DHT22;11536;50.860;4.286;2022-07-23T00:59:09;18.70;99.90
22738;DHT22;11536;50.860;4.286;2022-07-23T01:01:35;18.70;99.90
22738;DHT22;11536;50.860;4.286;2022-07-23T01:04:00;18.70;99.90
22738;DHT22;11536;50.860;4.286;2022-07-23T01:06:26;18.70;99.90
22738;DHT22;11536;50.860;4.286;2022-07-23T01:08:53;18.60;99.90
22738;DHT22;11536;50.860;4.286;2022-07-23T01:11:20;18.70;99.90
22738;DHT22;11536;50.860;4.286;2022-07-23T01:13:46;18.60;99.90
22738;DHT22;11536;50.860;4.286;2022-07-23T01:16:12;18.60;99.90
22738;DHT22;11536;50.860;4.286;2022-07-23T01:18:38;18.60;99.90
22738;DHT22;11536;50.860;4.286;2022-07-23T01:21:04;18.60;99.90
22738;DHT22;11536;50.860;4.286;2022-07-23T01:23:29;18.50;99.90
22738;DHT22;11536;50.860;4.286;2022-07-23T01:25:55;18.50;99.90
22738;DHT22;11536;50.860;4.286;2022-07-23T01:28:21;18.50;99.90
22738;DHT22;11536;50.860;4.286;2022-07-23T01:30:47;18.50;99.90
22738;DHT22;11536;50.860;4.286;2022-07-23T01:33:13;18.50;99.90
22738;DHT22;11536;50.860;4.286;2022-07-23T01:35:39;18.50;99.90
22738;DHT22;11536;50.860;4.286;2022-07-23T01:38:05;18.50;99.90
22738;DHT22;11536;50.860;4.286;2022-07-23T01:40:31;18.40;99.90
22738;DHT22;11536;50.860;4.286;2022-07-23T01:42:56;18.40;99.90
22738;DHT22;11536;50.860;4.286;2022-07-23T01:45:22;18.40;99.90
22738;DHT22;11536;50.860;4.286;2022-07-23T01:47:48;18.40;99.90
22738;DHT22;11536;50.860;4.286;2022-07-23T01:50:14;18.40;99.90
22738;DHT22;11536;50.860;4.286;2022-07-23T01:52:40;18.40;99.90
22738;DHT22;11536;50.860;4.286;2022-07-23T01:55:07;18.30;99.90
22738;DHT22;11536;50.860;4.286;2022-07-23T01:57:33;18.40;99.90
22738;DHT22;11536;50.860;4.286;2022-07-23T01:59:59;18.40;99.90
22738;DHT22;11536;50.860;4.286;2022-07-23T02:02:24;18.30;99.90
22738;DHT22;11536;50.860;4.286;2022-07-23T02:04:50;18.40;99.90
22738;DHT22;11536;50.860;4.286;2022-07-23T02:07:16;18.30;99.90
22738;DHT22;11536;50.860;4.286;2022-07-23T02:09:42;18.30;99.90
22738;DHT22;11536;50.860;4.286;2022-07-23T02:12:07;18.30;99.90
22738;DHT22;11536;50.860;4.286;2022-07-23T02:14:33;18.30;99.90
22738;DHT22;11536;50.860;4.286;2022-07-23T02:16:58;18.30;99.90
22738;DHT22;11536;50.860;4.286;2022-07-23T02:19:24;18.30;99.90
22738;DHT22;11536;50.860;4.286;2022-07-23T02:21:50;18.30;99.90
22738;DHT22;11536;50.860;4.286;2022-07-23T02:24:16;18.20;99.90
22738;DHT22;11536;50.860;4.286;2022-07-23T02:26:42;18.30;99.90
22738;DHT22;11536;50.860;4.286;2022-07-23T02:29:08;18.30;99.90
22738;DHT22;11536;50.860;4.286;2022-07-23T02:31:33;18.30;99.90
22738;DHT22;11536;50.860;4.286;2022-07-23T02:34:00;18.20;99.90
22738;DHT22;11536;50.860;4.286;2022-07-23T02:36:25;18.20;99.90
22738;DHT22;11536;50.860;4.286;2022-07-23T02:38:51;18.30;99.90
22738;DHT22;11536;50.860;4.286;2022-07-23T02:41:17;18.20;99.90
22738;DHT22;11536;50.860;4.286;2022-07-23T02:43:42;18.20;99.90
22738;DHT22;11536;50.860;4.286;2022-07-23T02:46:08;18.20;99.90
22738;DHT22;11536;50.860;4.286;2022-07-23T02:48:34;18.20;99.90
22738;DHT22;11536;50.860;4.286;2022-07-23T02:50:59;18.20;99.90
22738;DHT22;11536;50.860;4.286;2022-07-23T02:53:25;18.20;99.90
22738;DHT22;11536;50.860;4.286;2022-07-23T02:55:51;18.10;99.90
22738;DHT22;11536;50.860;4.286;2022-07-23T02:58:17;18.00;99.90
22738;DHT22;11536;50.860;4.286;2022-07-23T03:00:43;18.00;99.90
22738;DHT22;11536;50.860;4.286;2022-07-23T03:03:09;17.90;99.90
22738;DHT22;11536;50.860;4.286;2022-07-23T03:05:34;17.90;99.90
22738;DHT22;11536;50.860;4.286;2022-07-23T03:08:00;17.80;99.90
22738;DHT22;11536;50.860;4.286;2022-07-23T03:10:26;17.80;99.90
22738;DHT22;11536;50.860;4.286;2022-07-23T03:12:52;17.80;99.90
22738;DHT22;11536;50.860;4.286;2022-07-23T03:15:18;17.70;99.90
22738;DHT22;11536;50.860;4.286;2022-07-23T03:17:43;17.70;99.90
22738;DHT22;11536;50.860;4.286;2022-07-23T03:20:09;17.70;99.90
22738;DHT22;11536;50.860;4.286;2022-07-23T03:22:35;17.70;99.90
22738;DHT22;11536;50.860;4.286;2022-07-23T03:25:00;17.60;99.90
22738;DHT22;11536;50.860;4.286;2022-07-23T03:27:27;17.60;99.90
22738;DHT22;11536;50.860;4.286;2022-07-23T03:29:55;17.50;99.90
22738;DHT22;11536;50.860;4.286;2022-07-23T03:32:21;17.50;99.90
22738;DHT22;11536;50.860;4.286;2022-07-23T03:34:47;17.40;99.90
22738;DHT22;11536;50.860;4.286;2022-07-23T03:37:13;17.40;99.90
22738;DHT22;11536;50.860;4.286;2022-07-23T03:39:39;17.50;99.90
22738;DHT22;11536;50.860;4.286;2022-07-23T03:42:05;17.50;99.90
22738;DHT22;11536;50.860;4.286;2022-07-23T03:44:31;17.50;99.90
22738;DHT22;11536;50.860;4.286;2022-07-23T03:46:57;17.40;99.90
22738;DHT22;11536;50.860;4.286;2022-07-23T03:49:22;17.30;99.90
22738;DHT22;11536;50.860;4.286;2022-07-23T03:51:48;17.30;99.90
22738;DHT22;11536;50.860;4.286;2022-07-23T03:54:13;17.30;99.90
22738;DHT22;11536;50.860;4.286;2022-07-23T03:56:39;17.30;99.90
22738;DHT22;11536;50.860;4.286;2022-07-23T03:59:05;17.20;99.90
22738;DHT22;11536;50.860;4.286;2022-07-23T04:01:31;17.20;99.90
22738;DHT22;11536;50.860;4.286;2022-07-23T04:03:56;17.20;99.90
22738;DHT22;11536;50.860;4.286;2022-07-23T04:06:22;17.10;99.90
22738;DHT22;11536;50.860;4.286;2022-07-23T04:08:47;17.10;99.90
22738;DHT22;11536;50.860;4.286;2022-07-23T04:11:13;17.10;99.90
22738;DHT22;11536;50.860;4.286;2022-07-23T04:13:39;17.10;99.90
22738;DHT22;11536;50.860;4.286;2022-07-23T04:16:05;17.10;99.90
22738;DHT22;11536;50.860;4.286;2022-07-23T04:18:31;17.10;99.90
22738;DHT22;11536;50.860;4.286;2022-07-23T04:20:57;17.10;99.90
22738;DHT22;11536;50.860;4.286;2022-07-23T04:23:23;17.10;99.90
22738;DHT22;11536;50.860;4.286;2022-07-23T04:25:49;17.10;99.90
22738;DHT22;11536;50.860;4.286;2022-07-23T04:28:14;17.10;99.90
22738;DHT22;11536;50.860;4.286;2022-07-23T04:30:40;17.10;99.90
22738;DHT22;11536;50.860;4.286;2022-07-23T04:33:06;17.10;99.90
22738;DHT22;11536;50.860;4.286;2022-07-23T04:35:35;17.00;99.90
22738;DHT22;11536;50.860;4.286;2022-07-23T04:38:02;16.90;99.90
22738;DHT22;11536;50.860;4.286;2022-07-23T04:40:28;16.90;99.90
22738;DHT22;11536;50.860;4.286;2022-07-23T04:42:54;17.00;99.90
22738;DHT22;11536;50.860;4.286;2022-07-23T04:45:19;17.00;99.90
22738;DHT22;11536;50.860;4.286;2022-07-23T04:47:45;17.00;99.90
22738;DHT22;11536;50.860;4.286;2022-07-23T04:50:11;17.00;99.90
22738;DHT22;11536;50.860;4.286;2022-07-23T04:52:37;17.10;99.90
22738;DHT22;11536;50.860;4.286;2022-07-23T04:55:03;17.10;99.90
22738;DHT22;11536;50.860;4.286;2022-07-23T04:57:29;17.10;99.90
22738;DHT22;11536;50.860;4.286;2022-07-23T04:59:55;17.10;99.90
22738;DHT22;11536;50.860;4.286;2022-07-23T05:02:20;17.20;99.90
22738;DHT22;11536;50.860;4.286;2022-07-23T05:04:46;17.20;99.90
22738;DHT22;11536;50.860;4.286;2022-07-23T05:07:11;17.20;99.90
22738;DHT22;11536;50.860;4.286;2022-07-23T05:09:37;17.30;99.90
22738;DHT22;11536;50.860;4.286;2022-07-23T05:12:03;17.30;99.90
22738;DHT22;11536;50.860;4.286;2022-07-23T05:14:29;17.40;99.90
22738;DHT22;11536;50.860;4.286;2022-07-23T05:16:55;17.40;99.90
22738;DHT22;11536;50.860;4.286;2022-07-23T05:19:20;17.40;99.90
22738;DHT22;11536;50.860;4.286;2022-07-23T05:21:46;17.40;99.90
22738;DHT22;11536;50.860;4.286;2022-07-23T05:24:12;17.50;99.90
22738;DHT22;11536;50.860;4.286;2022-07-23T05:26:37;17.50;99.90
22738;DHT22;11536;50.860;4.286;2022-07-23T05:29:03;17.50;99.90
22738;DHT22;11536;50.860;4.286;2022-07-23T05:31:28;17.60;99.90
22738;DHT22;11536;50.860;4.286;2022-07-23T05:33:54;17.60;99.90
22738;DHT22;11536;50.860;4.286;2022-07-23T05:36:20;17.60;99.90
22738;DHT22;11536;50.860;4.286;2022-07-23T05:38:45;17.70;99.90
22738;DHT22;11536;50.860;4.286;2022-07-23T05:41:11;17.70;99.90
22738;DHT22;11536;50.860;4.286;2022-07-23T05:43:36;17.70;99.90
22738;DHT22;11536;50.860;4.286;2022-07-23T05:46:02;17.70;99.90
22738;DHT22;11536;50.860;4.286;2022-07-23T05:48:28;17.70;99.90
22738;DHT22;11536;50.860;4.286;2022-07-23T05:50:53;17.70;99.90
22738;DHT22;11536;50.860;4.286;2022-07-23T05:53:19;17.80;99.90
22738;DHT22;11536;50.860;4.286;2022-07-23T05:55:44;17.80;99.90
22738;DHT22;11536;50.860;4.286;2022-07-23T05:58:10;17.80;99.90
22738;DHT22;11536;50.860;4.286;2022-07-23T06:00:36;17.80;99.90
22738;DHT22;11536;50.860;4.286;2022-07-23T06:03:02;17.80;99.90
22738;DHT22;11536;50.860;4.286;2022-07-23T06:05:27;17.90;99.90
22738;DHT22;11536;50.860;4.286;2022-07-23T06:07:53;17.90;99.90
22738;DHT22;11536;50.860;4.286;2022-07-23T06:10:19;17.90;99.90
22738;DHT22;11536;50.860;4.286;2022-07-23T06:12:45;18.00;99.90
22738;DHT22;11536;50.860;4.286;2022-07-23T06:15:11;18.00;99.90
22738;DHT22;11536;50.860;4.286;2022-07-23T06:17:37;18.00;99.90
22738;DHT22;11536;50.860;4.286;2022-07-23T06:20:06;18.10;99.90
22738;DHT22;11536;50.860;4.286;2022-07-23T06:22:31;18.10;99.90
22738;DHT22;11536;50.860;4.286;2022-07-23T06:24:57;18.20;99.90
22738;DHT22;11536;50.860;4.286;2022-07-23T06:27:23;18.20;99.90
22738;DHT22;11536;50.860;4.286;2022-07-23T06:29:48;18.20;99.90
22738;DHT22;11536;50.860;4.286;2022-07-23T06:32:14;18.30;99.90
22738;DHT22;11536;50.860;4.286;2022-07-23T06:34:39;18.40;99.90
22738;DHT22;11536;50.860;4.286;2022-07-23T06:37:05;18.40;99.90
22738;DHT22;11536;50.860;4.286;2022-07-23T06:39:31;18.50;99.90
22738;DHT22;11536;50.860;4.286;2022-07-23T06:41:56;18.50;99.90
22738;DHT22;11536;50.860;4.286;2022-07-23T06:44:22;18.50;99.90
22738;DHT22;11536;50.860;4.286;2022-07-23T06:46:48;18.60;99.90
22738;DHT22;11536;50.860;4.286;2022-07-23T06:49:13;18.60;99.90
22738;DHT22;11536;50.860;4.286;2022-07-23T06:51:39;18.70;99.90
22738;DHT22;11536;50.860;4.286;2022-07-23T06:54:04;18.70;99.90
22738;DHT22;11536;50.860;4.286;2022-07-23T06:56:30;18.80;99.90
22738;DHT22;11536;50.860;4.286;2022-07-23T06:58:56;18.80;99.90
22738;DHT22;11536;50.860;4.286;2022-07-23T07:01:21;18.90;99.90
22738;DHT22;11536;50.860;4.286;2022-07-23T07:03:47;18.90;99.90
22738;DHT22;11536;50.860;4.286;2022-07-23T07:06:13;18.90;99.90
22738;DHT22;11536;50.860;4.286;2022-07-23T07:08:39;19.00;99.90
22738;DHT22;11536;50.860;4.286;2022-07-23T07:11:05;19.00;99.90
22738;DHT22;11536;50.860;4.286;2022-07-23T07:13:30;19.10;99.90
22738;DHT22;11536;50.860;4.286;2022-07-23T07:15:56;19.10;99.90
22738;DHT22;11536;50.860;4.286;2022-07-23T07:18:22;19.20;99.90
22738;DHT22;11536;50.860;4.286;2022-07-23T07:20:48;19.20;99.90
22738;DHT22;11536;50.860;4.286;2022-07-23T07:23:14;19.30;99.90
22738;DHT22;11536;50.860;4.286;2022-07-23T07:25:40;19.30;99.90
22738;DHT22;11536;50.860;4.286;2022-07-23T07:28:06;19.40;99.90
22738;DHT22;11536;50.860;4.286;2022-07-23T07:30:31;19.50;99.90
22738;DHT22;11536;50.860;4.286;2022-07-23T07:32:57;19.50;99.90
22738;DHT22;11536;50.860;4.286;2022-07-23T07:35:23;19.60;99.90
22738;DHT22;11536;50.860;4.286;2022-07-23T07:37:49;19.60;99.90
22738;DHT22;11536;50.860;4.286;2022-07-23T07:40:15;19.70;99.90
22738;DHT22;11536;50.860;4.286;2022-07-23T07:42:48;19.70;99.90
22738;DHT22;11536;50.860;4.286;2022-07-23T07:45:14;19.80;99.90
22738;DHT22;11536;50.860;4.286;2022-07-23T07:47:40;19.80;99.90
22738;DHT22;11536;50.860;4.286;2022-07-23T07:50:06;19.90;99.90
22738;DHT22;11536;50.860;4.286;2022-07-23T07:52:33;19.90;99.90
22738;DHT22;11536;50.860;4.286;2022-07-23T07:55:02;19.90;99.90
22738;DHT22;11536;50.860;4.286;2022-07-23T07:57:28;20.00;99.90
22738;DHT22;11536;50.860;4.286;2022-07-23T07:59:54;20.10;99.90
22738;DHT22;11536;50.860;4.286;2022-07-23T08:02:19;20.10;99.90
22738;DHT22;11536;50.860;4.286;2022-07-23T08:04:45;20.10;99.90
22738;DHT22;11536;50.860;4.286;2022-07-23T08:07:10;20.10;99.90
22738;DHT22;11536;50.860;4.286;2022-07-23T08:09:36;20.20;99.90
22738;DHT22;11536;50.860;4.286;2022-07-23T08:12:01;20.20;99.90
22738;DHT22;11536;50.860;4.286;2022-07-23T08:14:27;20.20;99.90
22738;DHT22;11536;50.860;4.286;2022-07-23T08:16:52;20.20;99.90
22738;DHT22;11536;50.860;4.286;2022-07-23T08:19:18;20.30;99.90
22738;DHT22;11536;50.860;4.286;2022-07-23T08:21:44;20.30;99.90
22738;DHT22;11536;50.860;4.286;2022-07-23T08:24:09;20.40;99.90
22738;DHT22;11536;50.860;4.286;2022-07-23T08:26:35;20.40;99.90
22738;DHT22;11536;50.860;4.286;2022-07-23T08:29:00;20.50;99.90
22738;DHT22;11536;50.860;4.286;2022-07-23T08:31:26;20.50;99.90
22738;DHT22;11536;50.860;4.286;2022-07-23T08:33:51;20.50;99.90
22738;DHT22;11536;50.860;4.286;2022-07-23T08:36:17;20.60;99.90
22738;DHT22;11536;50.860;4.286;2022-07-23T08:38:43;20.60;99.90
22738;DHT22;11536;50.860;4.286;2022-07-23T08:41:09;20.60;99.90
22738;DHT22;11536;50.860;4.286;2022-07-23T08:43:35;20.60;99.90
22738;DHT22;11536;50.860;4.286;2022-07-23T08:46:01;20.70;99.90
22738;DHT22;11536;50.860;4.286;2022-07-23T08:48:30;20.80;99.90
22738;DHT22;11536;50.860;4.286;2022-07-23T08:50:58;20.80;99.90
22738;DHT22;11536;50.860;4.286;2022-07-23T08:53:25;20.80;99.90
22738;DHT22;11536;50.860;4.286;2022-07-23T08:55:54;20.90;99.90
22738;DHT22;11536;50.860;4.286;2022-07-23T08:58:20;20.90;99.90
22738;DHT22;11536;50.860;4.286;2022-07-23T09:00:47;21.00;99.90
22738;DHT22;11536;50.860;4.286;2022-07-23T09:03:22;21.00;99.90
22738;DHT22;11536;50.860;4.286;2022-07-23T09:05:50;21.10;99.90
22738;DHT22;11536;50.860;4.286;2022-07-23T09:08:39;21.10;99.90
22738;DHT22;11536;50.860;4.286;2022-07-23T09:11:06;21.20;99.90
22738;DHT22;11536;50.860;4.286;2022-07-23T09:13:48;21.30;99.90
22738;DHT22;11536;50.860;4.286;2022-07-23T09:18:50;21.30;99.90
22738;DHT22;11536;50.860;4.286;2022-07-23T09:23:55;21.40;99.90
22738;DHT22;11536;50.860;4.286;2022-07-23T09:26:31;21.40;99.90
22738;DHT22;11536;50.860;4.286;2022-07-23T09:29:14;21.50;99.90
22738;DHT22;11536;50.860;4.286;2022-07-23T09:36:46;21.50;99.90
22738;DHT22;11536;50.860;4.286;2022-07-23T09:39:13;21.60;99.90
22738;DHT22;11536;50.860;4.286;2022-07-23T09:41:45;21.60;99.90
22738;DHT22;11536;50.860;4.286;2022-07-23T09:44:20;21.70;99.90
22738;DHT22;11536;50.860;4.286;2022-07-23T09:46:48;21.70;99.90
22738;DHT22;11536;50.860;4.286;2022-07-23T09:49:22;21.80;99.90
22738;DHT22;11536;50.860;4.286;2022-07-23T09:51:53;21.80;99.90
22738;DHT22;11536;50.860;4.286;2022-07-23T09:54:26;21.90;99.90
22738;DHT22;11536;50.860;4.286;2022-07-23T09:56:54;21.90;99.90
22738;DHT22;11536;50.860;4.286;2022-07-23T09:59:24;21.90;99.90
22738;DHT22;11536;50.860;4.286;2022-07-23T10:01:53;21.90;99.90
22738;DHT22;11536;50.860;4.286;2022-07-23T10:04:19;22.00;99.90
22738;DHT22;11536;50.860;4.286;2022-07-23T10:06:45;22.00;99.90
22738;DHT22;11536;50.860;4.286;2022-07-23T10:09:12;22.00;99.90
22738;DHT22;11536;50.860;4.286;2022-07-23T10:11:42;22.00;99.90
22738;DHT22;11536;50.860;4.286;2022-07-23T10:14:08;22.10;99.90
22738;DHT22;11536;50.860;4.286;2022-07-23T10:16:33;22.10;99.90
22738;DHT22;11536;50.860;4.286;2022-07-23T10:18:59;22.10;99.90
22738;DHT22;11536;50.860;4.286;2022-07-23T10:21:40;22.10;99.90
22738;DHT22;11536;50.860;4.286;2022-07-23T10:30:36;22.20;99.90
22738;DHT22;11536;50.860;4.286;2022-07-23T10:33:41;22.30;99.90
22738;DHT22;11536;50.860;4.286;2022-07-23T10:36:22;22.30;99.90
22738;DHT22;11536;50.860;4.286;2022-07-23T10:38:58;22.40;99.90
22738;DHT22;11536;50.860;4.286;2022-07-23T10:41:51;22.40;99.90
22738;DHT22;11536;50.860;4.286;2022-07-23T10:44:21;22.40;99.90
22738;DHT22;11536;50.860;4.286;2022-07-23T10:46:55;22.50;99.90
22738;DHT22;11536;50.860;4.286;2022-07-23T10:49:31;22.50;99.90
22738;DHT22;11536;50.860;4.286;2022-07-23T10:52:17;22.60;99.90
22738;DHT22;11536;50.860;4.286;2022-07-23T10:54:53;22.70;99.90
22738;DHT22;11536;50.860;4.286;2022-07-23T10:57:21;22.70;99.90
22738;DHT22;11536;50.860;4.286;2022-07-23T11:02:31;22.90;99.90
22738;DHT22;11536;50.860;4.286;2022-07-23T11:07:30;23.00;99.90
22738;DHT22;11536;50.860;4.286;2022-07-23T11:09:56;23.00;99.90
22738;DHT22;11536;50.860;4.286;2022-07-23T11:15:07;23.10;99.90
22738;DHT22;11536;50.860;4.286;2022-07-23T11:25:33;23.20;99.90
22738;DHT22;11536;50.860;4.286;2022-07-23T11:28:16;23.30;99.90
22738;DHT22;11536;50.860;4.286;2022-07-23T11:30:44;23.50;99.90
22738;DHT22;11536;50.860;4.286;2022-07-23T11:35:44;23.60;99.90
22738;DHT22;11536;50.860;4.286;2022-07-23T11:38:22;23.50;99.90
22738;DHT22;11536;50.860;4.286;2022-07-23T11:40:53;23.60;99.90
22738;DHT22;11536;50.860;4.286;2022-07-23T11:43:20;23.70;99.90
22738;DHT22;11536;50.860;4.286;2022-07-23T11:45:48;23.70;99.90
22738;DHT22;11536;50.860;4.286;2022-07-23T11:48:22;23.80;99.90
22738;DHT22;11536;50.860;4.286;2022-07-23T11:50:48;23.90;99.90
22738;DHT22;11536;50.860;4.286;2022-07-23T11:53:24;23.90;99.90
22738;DHT22;11536;50.860;4.286;2022-07-23T11:55:50;24.00;99.90
22738;DHT22;11536;50.860;4.286;2022-07-23T11:58:16;24.00;99.90
22738;DHT22;11536;50.860;4.286;2022-07-23T12:00:42;24.10;99.90
22738;DHT22;11536;50.860;4.286;2022-07-23T12:03:07;24.20;99.90
22738;DHT22;11536;50.860;4.286;2022-07-23T12:05:35;24.20;99.90
22738;DHT22;11536;50.860;4.286;2022-07-23T12:08:03;24.20;99.90
22738;DHT22;11536;50.860;4.286;2022-07-23T12:10:37;24.20;99.90
22738;DHT22;11536;50.860;4.286;2022-07-23T12:13:10;24.20;99.90
22738;DHT22;11536;50.860;4.286;2022-07-23T12:15:40;24.30;99.90
22738;DHT22;11536;50.860;4.286;2022-07-23T12:18:10;24.30;99.90
22738;DHT22;11536;50.860;4.286;2022-07-23T12:20:42;24.50;99.90
22738;DHT22;11536;50.860;4.286;2022-07-23T12:23:13;24.70;99.90
22738;DHT22;11536;50.860;4.286;2022-07-23T12:25:41;24.90;99.90
22738;DHT22;11536;50.860;4.286;2022-07-23T12:30:41;25.10;99.90
22738;DHT22;11536;50.860;4.286;2022-07-23T12:33:09;25.20;99.90
22738;DHT22;11536;50.860;4.286;2022-07-23T12:35:42;25.20;99.90
22738;DHT22;11536;50.860;4.286;2022-07-23T12:38:12;25.30;99.90
22738;DHT22;11536;50.860;4.286;2022-07-23T12:43:11;25.40;99.90
22738;DHT22;11536;50.860;4.286;2022-07-23T12:45:47;25.40;99.90
22738;DHT22;11536;50.860;4.286;2022-07-23T12:53:29;25.50;99.90
22738;DHT22;11536;50.860;4.286;2022-07-23T12:58:25;25.50;99.90
22738;DHT22;11536;50.860;4.286;2022-07-23T13:05:51;25.70;99.90
22738;DHT22;11536;50.860;4.286;2022-07-23T13:08:17;25.70;99.90
22738;DHT22;11536;50.860;4.286;2022-07-23T13:10:43;25.70;99.90
22738;DHT22;11536;50.860;4.286;2022-07-23T13:13:12;25.70;99.90
22738;DHT22;11536;50.860;4.286;2022-07-23T13:15:38;25.70;99.90
22738;DHT22;11536;50.860;4.286;2022-07-23T13:18:04;25.80;99.90
22738;DHT22;11536;50.860;4.286;2022-07-23T13:20:30;25.90;99.90
22738;DHT22;11536;50.860;4.286;2022-07-23T13:22:57;26.00;99.90
22738;DHT22;11536;50.860;4.286;2022-07-23T13:25:23;26.10;99.90
22738;DHT22;11536;50.860;4.286;2022-07-23T13:27:49;26.20;99.90
22738;DHT22;11536;50.860;4.286;2022-07-23T13:30:14;26.30;99.90
22738;DHT22;11536;50.860;4.286;2022-07-23T13:32:40;26.30;99.90
22738;DHT22;11536;50.860;4.286;2022-07-23T13:35:06;26.30;99.90
22738;DHT22;11536;50.860;4.286;2022-07-23T13:37:32;26.30;99.90
22738;DHT22;11536;50.860;4.286;2022-07-23T13:39:58;26.30;99.90
22738;DHT22;11536;50.860;4.286;2022-07-23T13:42:23;26.30;99.90
22738;DHT22;11536;50.860;4.286;2022-07-23T13:44:52;26.30;99.90
22738;DHT22;11536;50.860;4.286;2022-07-23T13:47:18;26.40;99.90
22738;DHT22;11536;50.860;4.286;2022-07-23T13:49:44;26.30;99.70
22738;DHT22;11536;50.860;4.286;2022-07-23T13:52:09;26.30;99.80
22738;DHT22;11536;50.860;4.286;2022-07-23T13:54:35;26.20;99.80
22738;DHT22;11536;50.860;4.286;2022-07-23T13:57:01;26.30;99.90
22738;DHT22;11536;50.860;4.286;2022-07-23T13:59:27;26.30;99.90
22738;DHT22;11536;50.860;4.286;2022-07-23T14:01:53;26.30;99.90
22738;DHT22;11536;50.860;4.286;2022-07-23T14:04:20;26.30;99.10
22738;DHT22;11536;50.860;4.286;2022-07-23T14:06:46;26.30;99.90
22738;DHT22;11536;50.860;4.286;2022-07-23T14:09:11;26.30;99.90
22738;DHT22;11536;50.860;4.286;2022-07-23T14:11:37;26.30;99.60
22738;DHT22;11536;50.860;4.286;2022-07-23T14:14:04;26.20;99.90
22738;DHT22;11536;50.860;4.286;2022-07-23T14:16:30;26.20;99.90
22738;DHT22;11536;50.860;4.286;2022-07-23T14:18:55;26.20;99.90
22738;DHT22;11536;50.860;4.286;2022-07-23T14:21:21;26.20;99.90
22738;DHT22;11536;50.860;4.286;2022-07-23T14:23:47;26.20;99.90
22738;DHT22;11536;50.860;4.286;2022-07-23T14:26:13;26.30;99.90
22738;DHT22;11536;50.860;4.286;2022-07-23T14:28:38;26.30;99.90
22738;DHT22;11536;50.860;4.286;2022-07-23T14:31:04;26.40;99.90
22738;DHT22;11536;50.860;4.286;2022-07-23T14:33:30;26.40;99.90
22738;DHT22;11536;50.860;4.286;2022-07-23T14:35:55;26.50;99.90
22738;DHT22;11536;50.860;4.286;2022-07-23T14:38:21;26.60;99.90
22738;DHT22;11536;50.860;4.286;2022-07-23T14:40:46;26.60;99.90
22738;DHT22;11536;50.860;4.286;2022-07-23T14:43:12;26.60;99.90
22738;DHT22;11536;50.860;4.286;2022-07-23T14:45:38;26.70;99.90
22738;DHT22;11536;50.860;4.286;2022-07-23T14:48:04;26.60;99.80
22738;DHT22;11536;50.860;4.286;2022-07-23T14:50:29;26.60;99.90
22738;DHT22;11536;50.860;4.286;2022-07-23T14:52:55;26.60;99.90
22738;DHT22;11536;50.860;4.286;2022-07-23T14:55:20;26.70;99.90
22738;DHT22;11536;50.860;4.286;2022-07-23T14:57:46;26.70;99.70
22738;DHT22;11536;50.860;4.286;2022-07-23T15:00:13;26.80;99.90
22738;DHT22;11536;50.860;4.286;2022-07-23T15:02:39;26.80;99.70
22738;DHT22;11536;50.860;4.286;2022-07-23T15:05:08;26.80;99.70
22738;DHT22;11536;50.860;4.286;2022-07-23T15:07:34;26.80;99.70
22738;DHT22;11536;50.860;4.286;2022-07-23T15:10:00;26.80;98.90
22738;DHT22;11536;50.860;4.286;2022-07-23T15:12:26;26.80;99.30
22738;DHT22;11536;50.860;4.286;2022-07-23T15:14:52;26.80;99.60
22738;DHT22;11536;50.860;4.286;2022-07-23T15:17:17;26.80;99.00
22738;DHT22;11536;50.860;4.286;2022-07-23T15:19:43;26.80;98.30
22738;DHT22;11536;50.860;4.286;2022-07-23T15:22:08;26.70;97.80
22738;DHT22;11536;50.860;4.286;2022-07-23T15:24:34;26.70;98.20
22738;DHT22;11536;50.860;4.286;2022-07-23T15:27:00;26.70;98.40
22738;DHT22;11536;50.860;4.286;2022-07-23T15:29:25;26.60;98.90
22738;DHT22;11536;50.860;4.286;2022-07-23T15:31:51;26.70;98.80
22738;DHT22;11536;50.860;4.286;2022-07-23T15:34:17;26.70;98.80
22738;DHT22;11536;50.860;4.286;2022-07-23T15:36:42;26.80;98.20
22738;DHT22;11536;50.860;4.286;2022-07-23T15:39:08;26.70;98.30
22738;DHT22;11536;50.860;4.286;2022-07-23T15:41:34;26.60;97.90
22738;DHT22;11536;50.860;4.286;2022-07-23T15:43:59;26.60;98.50
22738;DHT22;11536;50.860;4.286;2022-07-23T15:46:25;26.60;98.40
22738;DHT22;11536;50.860;4.286;2022-07-23T15:48:51;26.60;98.20
22738;DHT22;11536;50.860;4.286;2022-07-23T15:51:17;26.60;98.30
22738;DHT22;11536;50.860;4.286;2022-07-23T15:53:43;26.50;98.10
22738;DHT22;11536;50.860;4.286;2022-07-23T15:56:10;26.50;98.20
22738;DHT22;11536;50.860;4.286;2022-07-23T15:58:38;26.50;98.40
22738;DHT22;11536;50.860;4.286;2022-07-23T16:01:04;26.50;98.50
22738;DHT22;11536;50.860;4.286;2022-07-23T16:03:33;26.40;98.60
22738;DHT22;11536;50.860;4.286;2022-07-23T16:05:59;26.40;98.20
22738;DHT22;11536;50.860;4.286;2022-07-23T16:08:25;26.40;98.30
22738;DHT22;11536;50.860;4.286;2022-07-23T16:10:50;26.50;98.30
22738;DHT22;11536;50.860;4.286;2022-07-23T16:13:16;26.50;98.50
22738;DHT22;11536;50.860;4.286;2022-07-23T16:15:42;26.50;98.50
22738;DHT22;11536;50.860;4.286;2022-07-23T16:18:08;26.50;98.70
22738;DHT22;11536;50.860;4.286;2022-07-23T16:20:35;26.50;98.20